Cisco, Utah
Current Conditions -  °F | °C
As of 2:53 PM on Saturday 25 Oct 2014 (Local Time) from KCNY Reporting Station
Clear Clear  
Wind Chill: 76°   Ceiling: Unl
Heat Index: 76°   Visibility: 10mi
Dew Point: 31°   Wind: 5mph
Humidity: 19%   Direction: 140°SE
Pressure: 30.08"   Gusts: NA
Location:  38.97°N, 109.32°W
Report Text: KCNY 252053Z AUTO 14004KT 10SM CLR 24/M01 A3008 RMK AO2 SLP146 T02441006 58033
Loading
Personal Weather Stations






























Interactive Weather Map
Tropical Storm Tracking
New forecast layout! Learn more

10-Day Weather Forecast

Advertisements
Track Severe Weather on mobile